createdAt,value
2022-10-22T00:04:35.533Z,97063.50
2022-10-22T00:14:49.433Z,97071.00
2022-10-22T00:25:02.450Z,97085.22
2022-10-22T00:35:15.438Z,97091.72
2022-10-22T00:45:32.470Z,97081.56
2022-10-22T00:55:52.457Z,97089.50
2022-10-22T01:06:07.492Z,97068.81
2022-10-22T01:16:27.457Z,97061.69
2022-10-22T01:27:08.524Z,97070.16
2022-10-22T01:37:22.493Z,97055.03
2022-10-22T01:47:46.519Z,97062.44
2022-10-22T01:58:18.506Z,97055.41
2022-10-22T02:08:37.525Z,97041.22
2022-10-22T02:18:53.509Z,97030.41
2022-10-22T02:29:14.535Z,97037.91
2022-10-22T02:39:27.527Z,97043.25
2022-10-22T02:49:40.567Z,97026.97
2022-10-22T02:59:53.534Z,97049.22
2022-10-22T03:10:06.566Z,97028.63
2022-10-22T03:20:19.546Z,97036.72
2022-10-22T03:30:32.594Z,97015.19
2022-10-22T03:40:45.582Z,96994.19
2022-10-22T03:50:58.598Z,96995.25
2022-10-22T04:01:19.646Z,97020.31
2022-10-22T04:11:32.595Z,97020.13
2022-10-22T04:21:45.600Z,97036.78
2022-10-22T04:31:58.621Z,97047.31
2022-10-22T04:42:11.613Z,97045.19
2022-10-22T04:52:24.629Z,97040.00
2022-10-22T05:02:37.618Z,97014.44
2022-10-22T05:12:50.651Z,97026.94
2022-10-22T05:23:03.625Z,97036.59
2022-10-22T05:33:18.760Z,97038.53
2022-10-22T05:43:34.643Z,97037.34
2022-10-22T05:53:49.691Z,97002.34
2022-10-22T06:04:07.656Z,97026.59
2022-10-22T06:14:20.691Z,97013.09
2022-10-22T06:24:33.702Z,97025.94
2022-10-22T06:34:46.711Z,97041.00
2022-10-22T06:44:59.694Z,97076.91
2022-10-22T06:55:18.710Z,97105.28
2022-10-22T07:05:31.710Z,97117.16
2022-10-22T07:15:44.716Z,97129.44
2022-10-22T07:25:57.730Z,97123.59
2022-10-22T07:36:12.763Z,97133.75
2022-10-22T07:46:32.739Z,97120.22
2022-10-22T07:56:45.777Z,97121.50
2022-10-22T08:06:58.747Z,97120.69
2022-10-22T08:17:11.778Z,97105.50
2022-10-22T08:27:24.783Z,97125.31
2022-10-22T08:37:37.987Z,97139.28
2022-10-22T08:48:08.829Z,97131.56
2022-10-22T08:58:36.785Z,97157.34
2022-10-22T09:08:51.846Z,97157.06
2022-10-22T09:19:07.794Z,97156.59
2022-10-22T09:29:25.813Z,97170.91
2022-10-22T09:39:42.837Z,97177.72
2022-10-22T09:49:55.810Z,97178.12
2022-10-22T10:00:08.843Z,97162.62
2022-10-22T10:10:28.842Z,97182.28
2022-10-22T10:21:02.919Z,97181.63
2022-10-22T10:31:19.863Z,97184.12
2022-10-22T10:41:40.858Z,97172.53
2022-10-22T10:52:00.874Z,97143.37
2022-10-22T11:02:38.871Z,97115.97
2022-10-22T11:12:53.910Z,97106.81
2022-10-22T11:23:19.863Z,97074.13
2022-10-22T11:33:37.921Z,97062.75
2022-10-22T11:44:02.914Z,97055.12
2022-10-22T11:54:49.927Z,97052.16
2022-10-22T12:05:03.939Z,97071.19
2022-10-22T12:15:31.953Z,97037.81
2022-10-22T12:25:45.937Z,97044.34
2022-10-22T12:36:01.946Z,97032.25
2022-10-22T12:46:20.953Z,97050.72
2022-10-22T12:56:36.949Z,97019.34
2022-10-22T13:06:54.959Z,97016.16
2022-10-22T13:17:11.977Z,97005.72
2022-10-22T13:27:24.995Z,97000.00
2022-10-22T13:37:45.974Z,96995.28
2022-10-22T13:48:01.020Z,96993.34
2022-10-22T13:58:22.020Z,97021.72
2022-10-22T14:08:36.063Z,97004.69
2022-10-22T14:18:49.037Z,97063.12
2022-10-22T14:29:09.235Z,96971.31
2022-10-22T14:39:22.044Z,96928.87
2022-10-22T14:49:35.071Z,96889.59
2022-10-22T14:59:55.057Z,96872.91
2022-10-22T15:10:08.115Z,96794.13
2022-10-22T15:20:21.173Z,96712.06
2022-10-22T15:30:34.120Z,96659.50
2022-10-22T15:40:48.173Z,96651.22
2022-10-22T15:51:01.171Z,96647.81
2022-10-22T16:01:21.255Z,96637.78
2022-10-22T16:11:35.207Z,96619.13
2022-10-22T16:21:48.220Z,96621.97
2022-10-22T16:32:01.222Z,96628.09
2022-10-22T16:42:14.245Z,96635.88
2022-10-22T16:52:27.232Z,96645.38
2022-10-22T17:02:40.516Z,96668.81
2022-10-22T17:12:54.246Z,96680.66
2022-10-22T17:23:07.290Z,96690.03
2022-10-22T17:33:20.226Z,96675.34
2022-10-22T17:43:33.181Z,96673.56
2022-10-22T17:53:50.198Z,96682.88
2022-10-22T18:04:06.173Z,96683.50
2022-10-22T18:14:19.194Z,96698.53
2022-10-22T18:24:32.210Z,96717.25
2022-10-22T18:34:45.196Z,96716.00
2022-10-22T18:44:58.200Z,96714.00
2022-10-22T18:55:12.197Z,96713.63
2022-10-22T19:05:25.227Z,96730.53
2022-10-22T19:15:38.224Z,96746.72
2022-10-22T19:25:51.253Z,96765.53
2022-10-22T19:36:04.344Z,96789.97
2022-10-22T19:46:17.269Z,96817.13
2022-10-22T19:56:30.244Z,96861.50
2022-10-22T20:06:43.259Z,96866.84
2022-10-22T20:16:56.241Z,96880.88
2022-10-22T20:27:09.310Z,96887.06
2022-10-22T20:37:22.282Z,96892.00
2022-10-22T20:47:51.196Z,96913.63
2022-10-22T20:58:11.299Z,96932.75
2022-10-22T21:08:25.296Z,96937.28
2022-10-22T21:18:38.298Z,96954.72
2022-10-22T21:28:51.346Z,96952.84
2022-10-22T21:39:04.324Z,96963.97
2022-10-22T21:49:17.339Z,96977.09
2022-10-22T21:59:39.349Z,96986.66
2022-10-22T22:09:52.334Z,96984.75
2022-10-22T22:20:05.349Z,96996.09
2022-10-22T22:30:18.350Z,97010.50
2022-10-22T22:40:33.760Z,97011.66
2022-10-22T22:50:46.358Z,97039.41
2022-10-22T23:01:04.423Z,97054.88
2022-10-22T23:11:20.370Z,97052.56
2022-10-22T23:21:35.401Z,97067.19
2022-10-22T23:31:48.382Z,97076.44
2022-10-22T23:42:01.426Z,97086.84
2022-10-22T23:52:14.414Z,97102.81
